Thisted, Denmark
Current Conditions -  °F | °C
As of 12:50 AM on Saturday 25 Oct 2014 (Local Time) from EKYT Reporting Station
Broken Clouds Broken Clouds  
Wind Chill: 54°   Ceiling: 1200
Heat Index: 54°   Visibility: 5mi
Dew Point: 52°   Wind: 18mph
Humidity: 94%   Direction: 180°S
Pressure: 29.85"   Gusts: NA
Location:  56.95°N, 8.69°E
Report Text: EKYT 242250Z 18016KT 8000 FEW008 BKN012 12/11 Q1011
Loading
Personal Weather Stations






























Interactive Weather Map
Tropical Storm Tracking
New forecast layout! Learn more

10-Day Weather Forecast

Advertisements
Track Severe Weather on mobile